JST518 YMML-YMLT
Flight info
| Callsign | JST518 |
|---|---|
| Flight time | 0h 48m |
| Altitude | 31000 |
| Route | SUNTI4/27 SUNTI H169 IRSOM W105 LT |
| Aircraft | A321/M-SDE3FGHIRWY/LB1 |
Departure
| Time | 2026-05-05 09:22 |
|---|---|
| Airport | Melbourne Airport (YMML) |
Arrival
| Time | 2026-05-05 10:11 |
|---|---|
| Airport | Launceston Airport (YMLT) |
| Time | Latitude | Longitude | Altitude | Speed | Heading |
|---|---|---|---|---|---|
| 2026-05-05 09:07 | -37.67140 | 144.84587 | 388 ft | 0 kts | 352° |
| 2026-05-05 09:10 | -37.67141 | 144.84587 | 388 ft | 2 kts | 352° |
| 2026-05-05 09:10 | -37.67162 | 144.84592 | 387 ft | 3 kts | 342° |
| 2026-05-05 09:10 | -37.67184 | 144.84604 | 387 ft | 3 kts | 322° |
| 2026-05-05 09:10 | -37.67198 | 144.84624 | 387 ft | 3 kts | 279° |
| 2026-05-05 09:11 | -37.67199 | 144.84634 | 387 ft | 1 kts | 262° |
| 2026-05-05 09:13 | -37.67199 | 144.84633 | 387 ft | 1 kts | 262° |
| 2026-05-05 09:14 | -37.67202 | 144.84605 | 386 ft | 5 kts | 262° |
| 2026-05-05 09:14 | -37.67208 | 144.84546 | 385 ft | 8 kts | 262° |
| 2026-05-05 09:14 | -37.67201 | 144.84461 | 385 ft | 11 kts | 283° |
| 2026-05-05 09:14 | -37.67203 | 144.84354 | 383 ft | 14 kts | 263° |
| 2026-05-05 09:15 | -37.67154 | 144.84264 | 383 ft | 14 kts | 342° |
| 2026-05-05 09:15 | -37.67059 | 144.84243 | 385 ft | 14 kts | 349° |
| 2026-05-05 09:15 | -37.66966 | 144.84224 | 387 ft | 13 kts | 353° |
| 2026-05-05 09:15 | -37.66876 | 144.84209 | 389 ft | 13 kts | 351° |
| 2026-05-05 09:16 | -37.66793 | 144.84194 | 392 ft | 11 kts | 351° |
| 2026-05-05 09:16 | -37.66721 | 144.84180 | 394 ft | 10 kts | 351° |
| 2026-05-05 09:16 | -37.66659 | 144.84168 | 396 ft | 9 kts | 351° |
| 2026-05-05 09:16 | -37.66587 | 144.84155 | 401 ft | 13 kts | 355° |
| 2026-05-05 09:17 | -37.66527 | 144.84242 | 403 ft | 14 kts | 81° |
| 2026-05-05 09:17 | -37.66531 | 144.84335 | 403 ft | 10 kts | 81° |
| 2026-05-05 09:17 | -37.66516 | 144.84421 | 404 ft | 10 kts | 79° |
| 2026-05-05 09:17 | -37.66507 | 144.84513 | 405 ft | 11 kts | 79° |
| 2026-05-05 09:18 | -37.66483 | 144.84604 | 407 ft | 11 kts | 72° |
| 2026-05-05 09:18 | -37.66471 | 144.84701 | 408 ft | 12 kts | 83° |
| 2026-05-05 09:18 | -37.66456 | 144.84739 | 403 ft | 0 kts | 49° |
| 2026-05-05 09:18 | -37.66455 | 144.84741 | 404 ft | 4 kts | 49° |
| 2026-05-05 09:19 | -37.66392 | 144.84780 | 409 ft | 8 kts | 10° |
| 2026-05-05 09:19 | -37.66354 | 144.84785 | 412 ft | 0 kts | 4° |
| 2026-05-05 09:21 | -37.66320 | 144.84788 | 412 ft | 10 kts | 4° |
| 2026-05-05 09:21 | -37.66257 | 144.84794 | 413 ft | 9 kts | 3° |
| 2026-05-05 09:21 | -37.66223 | 144.84739 | 413 ft | 10 kts | 278° |
| 2026-05-05 09:21 | -37.66211 | 144.84555 | 413 ft | 49 kts | 274° |
| 2026-05-05 09:22 | -37.66166 | 144.83787 | 414 ft | 121 kts | 274° |
| 2026-05-05 09:22 | -37.66095 | 144.82537 | 657 ft | 152 kts | 274° |
| 2026-05-05 09:22 | -37.66081 | 144.81244 | 1465 ft | 146 kts | 270° |
| 2026-05-05 09:22 | -37.66025 | 144.79912 | 2111 ft | 155 kts | 274° |
| 2026-05-05 09:23 | -37.65932 | 144.78531 | 2670 ft | 169 kts | 274° |
| 2026-05-05 09:23 | -37.65821 | 144.76960 | 3119 ft | 191 kts | 274° |
| 2026-05-05 09:23 | -37.65699 | 144.75197 | 3542 ft | 213 kts | 273° |
| 2026-05-05 09:23 | -37.65570 | 144.73223 | 3942 ft | 239 kts | 274° |
| 2026-05-05 09:24 | -37.65506 | 144.71040 | 4654 ft | 256 kts | 261° |
| 2026-05-05 09:24 | -37.66215 | 144.69003 | 5655 ft | 260 kts | 227° |
| 2026-05-05 09:24 | -37.67667 | 144.67618 | 6733 ft | 265 kts | 212° |
| 2026-05-05 09:24 | -37.69243 | 144.66381 | 7790 ft | 268 kts | 212° |
| 2026-05-05 09:25 | -37.70842 | 144.65148 | 8863 ft | 271 kts | 211° |
| 2026-05-05 09:25 | -37.72605 | 144.64259 | 9669 ft | 277 kts | 193° |
| 2026-05-05 09:25 | -37.74549 | 144.64185 | 10392 ft | 285 kts | 173° |
| 2026-05-05 09:25 | -37.76448 | 144.64977 | 11068 ft | 293 kts | 154° |
| 2026-05-05 09:26 | -37.78272 | 144.66321 | 11344 ft | 315 kts | 152° |
| 2026-05-05 09:26 | -37.80226 | 144.67786 | 11517 ft | 337 kts | 152° |
| 2026-05-05 09:26 | -37.82279 | 144.69333 | 11998 ft | 347 kts | 152° |
| 2026-05-05 09:26 | -37.84365 | 144.70912 | 12640 ft | 352 kts | 152° |
| 2026-05-05 09:27 | -37.86475 | 144.72511 | 13314 ft | 355 kts | 152° |
| 2026-05-05 09:27 | -37.88610 | 144.74121 | 13968 ft | 359 kts | 152° |
| 2026-05-05 09:27 | -37.90768 | 144.75746 | 14570 ft | 363 kts | 152° |
| 2026-05-05 09:27 | -37.92954 | 144.77391 | 15170 ft | 367 kts | 152° |
| 2026-05-05 09:28 | -37.95153 | 144.79047 | 15782 ft | 370 kts | 152° |
| 2026-05-05 09:28 | -37.97378 | 144.80722 | 16400 ft | 373 kts | 152° |
| 2026-05-05 09:28 | -37.99620 | 144.82413 | 17006 ft | 377 kts | 151° |
| 2026-05-05 09:28 | -38.01883 | 144.84120 | 17620 ft | 380 kts | 151° |
| 2026-05-05 09:29 | -38.04163 | 144.85846 | 18218 ft | 383 kts | 152° |
| 2026-05-05 09:29 | -38.06518 | 144.87442 | 18761 ft | 386 kts | 155° |
| 2026-05-05 09:29 | -38.08931 | 144.88959 | 19300 ft | 388 kts | 156° |
| 2026-05-05 09:29 | -38.11376 | 144.90442 | 19846 ft | 391 kts | 156° |
| 2026-05-05 09:30 | -38.13843 | 144.91916 | 20392 ft | 393 kts | 157° |
| 2026-05-05 09:30 | -38.16293 | 144.93385 | 20950 ft | 396 kts | 157° |
| 2026-05-05 09:30 | -38.18789 | 144.94896 | 21483 ft | 399 kts | 156° |
| 2026-05-05 09:30 | -38.21334 | 144.96450 | 22027 ft | 402 kts | 156° |
| 2026-05-05 09:31 | -38.23826 | 144.97981 | 22548 ft | 405 kts | 156° |
| 2026-05-05 09:31 | -38.26362 | 144.99544 | 23052 ft | 407 kts | 156° |
| 2026-05-05 09:31 | -38.28921 | 145.01122 | 23561 ft | 410 kts | 156° |
| 2026-05-05 09:31 | -38.31495 | 145.02712 | 24012 ft | 412 kts | 156° |
| 2026-05-05 09:32 | -38.34083 | 145.04313 | 24428 ft | 415 kts | 156° |
| 2026-05-05 09:32 | -38.36688 | 145.05925 | 24845 ft | 417 kts | 156° |
| 2026-05-05 09:32 | -38.39304 | 145.07545 | 25249 ft | 419 kts | 156° |
| 2026-05-05 09:32 | -38.41934 | 145.09174 | 25648 ft | 422 kts | 157° |
| 2026-05-05 09:33 | -38.44582 | 145.10814 | 26028 ft | 424 kts | 157° |
| 2026-05-05 09:33 | -38.47241 | 145.12462 | 26414 ft | 427 kts | 157° |
| 2026-05-05 09:33 | -38.49918 | 145.14122 | 26801 ft | 429 kts | 157° |
| 2026-05-05 09:33 | -38.52608 | 145.15792 | 27184 ft | 431 kts | 157° |
| 2026-05-05 09:34 | -38.55316 | 145.17474 | 27561 ft | 433 kts | 157° |
| 2026-05-05 09:34 | -38.58032 | 145.19163 | 27938 ft | 436 kts | 157° |
| 2026-05-05 09:34 | -38.60760 | 145.20861 | 28309 ft | 438 kts | 157° |
| 2026-05-05 09:34 | -38.63505 | 145.22571 | 28675 ft | 440 kts | 157° |
| 2026-05-05 09:35 | -38.66264 | 145.24290 | 29024 ft | 442 kts | 157° |
| 2026-05-05 09:35 | -38.71832 | 145.27763 | 29722 ft | 447 kts | 157° |
| 2026-05-05 09:35 | -38.74626 | 145.29512 | 30069 ft | 449 kts | 157° |
| 2026-05-05 09:36 | -38.77439 | 145.31276 | 30386 ft | 451 kts | 157° |
| 2026-05-05 09:36 | -38.80269 | 145.33053 | 30685 ft | 454 kts | 157° |
| 2026-05-05 09:36 | -38.83110 | 145.34838 | 30969 ft | 456 kts | 157° |
| 2026-05-05 09:36 | -38.85960 | 145.36628 | 31166 ft | 456 kts | 157° |
| 2026-05-05 09:37 | -38.88771 | 145.38395 | 31214 ft | 442 kts | 157° |
| 2026-05-05 09:37 | -38.91510 | 145.40123 | 31203 ft | 436 kts | 157° |
| 2026-05-05 09:37 | -38.96939 | 145.43530 | 31201 ft | 434 kts | 158° |
| 2026-05-05 09:38 | -39.02357 | 145.46934 | 31201 ft | 434 kts | 158° |
| 2026-05-05 09:38 | -39.07777 | 145.50344 | 31197 ft | 433 kts | 158° |
| 2026-05-05 09:39 | -39.13191 | 145.53772 | 31213 ft | 434 kts | 158° |
| 2026-05-05 09:39 | -39.18606 | 145.57210 | 31208 ft | 434 kts | 158° |
| 2026-05-05 09:40 | -39.24022 | 145.60657 | 31203 ft | 434 kts | 158° |
| 2026-05-05 09:40 | -39.28526 | 145.63519 | 31202 ft | 434 kts | 158° |
| 2026-05-05 09:41 | -39.34863 | 145.67547 | 31199 ft | 434 kts | 158° |
| 2026-05-05 09:41 | -39.39365 | 145.70424 | 31196 ft | 435 kts | 158° |
| 2026-05-05 09:42 | -39.44786 | 145.73887 | 31192 ft | 434 kts | 158° |
| 2026-05-05 09:42 | -39.50203 | 145.77364 | 31193 ft | 434 kts | 158° |
| 2026-05-05 09:43 | -39.55618 | 145.80839 | 31199 ft | 434 kts | 158° |
| 2026-05-05 09:43 | -39.61030 | 145.84310 | 31205 ft | 434 kts | 158° |
| 2026-05-05 09:44 | -39.66435 | 145.87781 | 31193 ft | 434 kts | 158° |
| 2026-05-05 09:44 | -39.71839 | 145.91268 | 31183 ft | 434 kts | 158° |
| 2026-05-05 09:45 | -39.77244 | 145.94764 | 31196 ft | 434 kts | 158° |
| 2026-05-05 09:45 | -39.82649 | 145.98248 | 31190 ft | 434 kts | 158° |
| 2026-05-05 09:46 | -39.88053 | 146.01742 | 31187 ft | 434 kts | 158° |
| 2026-05-05 09:46 | -39.93451 | 146.05254 | 31176 ft | 434 kts | 158° |
| 2026-05-05 09:47 | -39.98816 | 146.08755 | 31184 ft | 434 kts | 158° |
| 2026-05-05 09:47 | -40.04217 | 146.12268 | 31179 ft | 434 kts | 158° |
| 2026-05-05 09:48 | -40.09609 | 146.15778 | 31180 ft | 433 kts | 158° |
| 2026-05-05 09:48 | -40.15004 | 146.19308 | 31168 ft | 434 kts | 158° |
| 2026-05-05 09:49 | -40.20403 | 146.22844 | 31161 ft | 434 kts | 158° |
| 2026-05-05 09:49 | -40.25805 | 146.26395 | 31159 ft | 435 kts | 158° |
| 2026-05-05 09:50 | -40.31210 | 146.29954 | 31154 ft | 435 kts | 158° |
| 2026-05-05 09:50 | -40.36620 | 146.33509 | 31171 ft | 435 kts | 158° |
| 2026-05-05 09:51 | -40.42035 | 146.37081 | 31164 ft | 436 kts | 158° |
| 2026-05-05 09:51 | -40.44751 | 146.38877 | 30799 ft | 439 kts | 158° |
| 2026-05-05 09:51 | -40.47486 | 146.40682 | 30124 ft | 440 kts | 158° |
| 2026-05-05 09:52 | -40.50206 | 146.42479 | 29578 ft | 435 kts | 158° |
| 2026-05-05 09:52 | -40.52891 | 146.44261 | 29078 ft | 430 kts | 158° |
| 2026-05-05 09:52 | -40.55543 | 146.46029 | 28568 ft | 425 kts | 158° |
| 2026-05-05 09:52 | -40.58166 | 146.47774 | 28084 ft | 420 kts | 158° |
| 2026-05-05 09:53 | -40.60771 | 146.49502 | 27547 ft | 417 kts | 158° |
| 2026-05-05 09:53 | -40.63343 | 146.51212 | 27113 ft | 412 kts | 159° |
| 2026-05-05 09:53 | -40.65881 | 146.52902 | 26649 ft | 408 kts | 159° |
| 2026-05-05 09:53 | -40.68402 | 146.54580 | 26199 ft | 404 kts | 159° |
| 2026-05-05 09:54 | -40.70903 | 146.56243 | 25760 ft | 401 kts | 159° |
| 2026-05-05 09:54 | -40.73386 | 146.57900 | 25326 ft | 399 kts | 159° |
| 2026-05-05 09:54 | -40.75852 | 146.59550 | 24906 ft | 396 kts | 158° |
| 2026-05-05 09:54 | -40.78305 | 146.61191 | 24477 ft | 394 kts | 159° |
| 2026-05-05 09:55 | -40.80746 | 146.62823 | 24046 ft | 393 kts | 159° |
| 2026-05-05 09:55 | -40.83178 | 146.64448 | 23609 ft | 391 kts | 159° |
| 2026-05-05 09:55 | -40.85595 | 146.66068 | 23133 ft | 388 kts | 159° |
| 2026-05-05 09:55 | -40.87992 | 146.67674 | 22687 ft | 384 kts | 159° |
| 2026-05-05 09:56 | -40.90362 | 146.69262 | 22252 ft | 381 kts | 159° |
| 2026-05-05 09:56 | -40.92716 | 146.70839 | 21811 ft | 378 kts | 159° |
| 2026-05-05 09:56 | -40.95050 | 146.72408 | 21356 ft | 375 kts | 159° |
| 2026-05-05 09:56 | -40.97365 | 146.73967 | 20896 ft | 372 kts | 159° |
| 2026-05-05 09:57 | -40.99666 | 146.75516 | 20441 ft | 370 kts | 159° |
| 2026-05-05 09:57 | -41.01951 | 146.77056 | 19985 ft | 368 kts | 159° |
| 2026-05-05 09:57 | -41.04194 | 146.78569 | 19537 ft | 366 kts | 159° |
| 2026-05-05 09:57 | -41.06457 | 146.80097 | 19074 ft | 364 kts | 159° |
| 2026-05-05 09:58 | -41.08709 | 146.81617 | 18634 ft | 363 kts | 159° |
| 2026-05-05 09:58 | -41.10956 | 146.83135 | 18135 ft | 362 kts | 159° |
| 2026-05-05 09:58 | -41.13194 | 146.84650 | 17674 ft | 360 kts | 159° |
| 2026-05-05 09:58 | -41.15416 | 146.86157 | 17214 ft | 357 kts | 159° |
| 2026-05-05 09:59 | -41.17618 | 146.87649 | 16764 ft | 354 kts | 159° |
| 2026-05-05 09:59 | -41.19805 | 146.89132 | 16313 ft | 352 kts | 159° |
| 2026-05-05 09:59 | -41.21975 | 146.90607 | 15874 ft | 349 kts | 159° |
| 2026-05-05 09:59 | -41.24132 | 146.92069 | 15435 ft | 347 kts | 159° |
| 2026-05-05 10:00 | -41.26278 | 146.93523 | 14969 ft | 346 kts | 159° |
| 2026-05-05 10:00 | -41.28415 | 146.94971 | 14538 ft | 344 kts | 159° |
| 2026-05-05 10:00 | -41.30545 | 146.96415 | 14101 ft | 343 kts | 158° |
| 2026-05-05 10:00 | -41.32663 | 146.97859 | 13634 ft | 341 kts | 158° |
| 2026-05-05 10:01 | -41.34766 | 146.99294 | 13193 ft | 339 kts | 158° |
| 2026-05-05 10:01 | -41.36860 | 147.00721 | 12751 ft | 337 kts | 158° |
| 2026-05-05 10:01 | -41.38935 | 147.02137 | 12321 ft | 334 kts | 158° |
| 2026-05-05 10:01 | -41.40994 | 147.03542 | 11898 ft | 331 kts | 158° |
| 2026-05-05 10:02 | -41.43013 | 147.04922 | 11485 ft | 329 kts | 158° |
| 2026-05-05 10:02 | -41.45048 | 147.06313 | 11051 ft | 328 kts | 158° |
| 2026-05-05 10:02 | -41.47101 | 147.07719 | 10604 ft | 328 kts | 157° |
| 2026-05-05 10:02 | -41.49103 | 147.09093 | 10231 ft | 326 kts | 157° |
| 2026-05-05 10:03 | -41.51080 | 147.10456 | 10091 ft | 314 kts | 157° |
| 2026-05-05 10:03 | -41.52995 | 147.11775 | 9918 ft | 306 kts | 157° |
| 2026-05-05 10:03 | -41.54885 | 147.13068 | 9486 ft | 306 kts | 157° |
| 2026-05-05 10:03 | -41.56761 | 147.14350 | 9179 ft | 299 kts | 156° |
| 2026-05-05 10:04 | -41.58603 | 147.15614 | 8599 ft | 297 kts | 156° |
| 2026-05-05 10:04 | -41.60432 | 147.16871 | 8016 ft | 295 kts | 156° |
| 2026-05-05 10:04 | -41.62255 | 147.18123 | 7442 ft | 293 kts | 155° |
| 2026-05-05 10:04 | -41.64053 | 147.19359 | 6957 ft | 288 kts | 155° |
| 2026-05-05 10:05 | -41.65820 | 147.20574 | 6476 ft | 281 kts | 154° |
| 2026-05-05 10:05 | -41.67521 | 147.21749 | 6003 ft | 269 kts | 154° |
| 2026-05-05 10:05 | -41.69102 | 147.22969 | 5560 ft | 257 kts | 143° |
| 2026-05-05 10:05 | -41.70291 | 147.24679 | 5137 ft | 247 kts | 121° |
| 2026-05-05 10:06 | -41.70928 | 147.26731 | 4733 ft | 234 kts | 101° |
| 2026-05-05 10:06 | -41.70999 | 147.28852 | 4346 ft | 225 kts | 81° |
| 2026-05-05 10:06 | -41.70561 | 147.30816 | 3992 ft | 215 kts | 60° |
| 2026-05-05 10:06 | -41.69701 | 147.32456 | 4009 ft | 216 kts | 43° |
| 2026-05-05 10:07 | -41.68513 | 147.33668 | 4008 ft | 214 kts | 24° |
| 2026-05-05 10:07 | -41.67127 | 147.34327 | 4013 ft | 211 kts | 7° |
| 2026-05-05 10:07 | -41.65679 | 147.34394 | 4009 ft | 207 kts | 349° |
| 2026-05-05 10:07 | -41.64311 | 147.33896 | 3763 ft | 207 kts | 332° |
| 2026-05-05 10:08 | -41.63214 | 147.32680 | 3353 ft | 203 kts | 303° |
| 2026-05-05 10:08 | -41.62719 | 147.30976 | 2917 ft | 200 kts | 278° |
| 2026-05-05 10:08 | -41.62440 | 147.29186 | 2560 ft | 189 kts | 288° |
| 2026-05-05 10:08 | -41.61823 | 147.27765 | 2378 ft | 169 kts | 312° |
| 2026-05-05 10:09 | -41.60978 | 147.26755 | 2197 ft | 158 kts | 319° |
| 2026-05-05 10:09 | -41.60104 | 147.25917 | 2016 ft | 149 kts | 327° |
| 2026-05-05 10:09 | -41.59260 | 147.25163 | 1713 ft | 143 kts | 325° |
| 2026-05-05 10:09 | -41.58446 | 147.24452 | 1372 ft | 138 kts | 327° |
| 2026-05-05 10:10 | -41.57633 | 147.23788 | 1116 ft | 135 kts | 328° |
| 2026-05-05 10:10 | -41.56853 | 147.23100 | 965 ft | 134 kts | 327° |
| 2026-05-05 10:10 | -41.56070 | 147.22435 | 812 ft | 134 kts | 327° |
| 2026-05-05 10:10 | -41.55285 | 147.21778 | 673 ft | 133 kts | 327° |
| 2026-05-05 10:11 | -41.54550 | 147.21145 | 594 ft | 112 kts | 326° |
| 2026-05-05 10:11 | -41.54125 | 147.20777 | 591 ft | 22 kts | 326° |
| 2026-05-05 10:11 | -41.54040 | 147.20678 | 590 ft | 12 kts | 290° |
| 2026-05-05 10:11 | -41.54066 | 147.20577 | 585 ft | 11 kts | 226° |
| 2026-05-05 10:12 | -41.54137 | 147.20590 | 584 ft | 10 kts | 153° |
| 2026-05-05 10:12 | -41.54202 | 147.20645 | 584 ft | 12 kts | 147° |
| 2026-05-05 10:12 | -41.54270 | 147.20705 | 584 ft | 9 kts | 145° |
| 2026-05-05 10:12 | -41.54301 | 147.20733 | 584 ft | 4 kts | 146° |
| 2026-05-05 10:13 | -41.54331 | 147.20760 | 584 ft | 6 kts | 147° |
| 2026-05-05 10:13 | -41.54357 | 147.20783 | 584 ft | 3 kts | 147° |
| 2026-05-05 10:13 | -41.54365 | 147.20782 | 584 ft | 1 kts | 184° |
| 2026-05-05 10:13 | -41.54369 | 147.20778 | 584 ft | 0 kts | 210° |
| 2026-05-05 10:14 | -41.54370 | 147.20777 | 584 ft | 1 kts | 214° |
| 2026-05-05 10:14 | -41.54371 | 147.20773 | 584 ft | 0 kts | 237° |
| 2026-05-05 10:14 | -41.54371 | 147.20771 | 584 ft | 0 kts | 249° |
| 2026-05-05 10:15 | -41.54369 | 147.20768 | 584 ft | 0 kts | 274° |
| 2026-05-05 10:15 | -41.54363 | 147.20762 | 584 ft | 3 kts | 319° |
| 2026-05-05 10:15 | -41.54329 | 147.20742 | 584 ft | 7 kts | 340° |
| 2026-05-05 10:15 | -41.54290 | 147.20705 | 584 ft | 7 kts | 307° |
| 2026-05-05 10:16 | -41.54275 | 147.20670 | 584 ft | 2 kts | 296° |
| 2026-05-05 10:16 | -41.54269 | 147.20651 | 583 ft | 1 kts | 295° |
| 2026-05-05 10:16 | -41.54263 | 147.20636 | 583 ft | 0 kts | 295° |